Terminal Aerodrome Forecast
Issued by NWS Portland, OR

Home | Current Version | Previous Version | Text Only | Print | Product List | Glossary On
Versions: 1 2 3 4 5 6 7 8 9 10 11 12 13 14 15 16 17 18 19 20 21 22 23 24 25 26
000
FTUS46 KPQR 280520
TAFPDX
TAF
KPDX 280520Z 2806/2906 22006KT P6SM SCT040 BKN070 OVC100
     FM281200 15005KT P6SM -RA BKN040 OVC060
     FM281900 14006KT P6SM BKN050 OVC080
     FM290300 13008KT P6SM -RA OVC035=

USA.gov is the U.S. government's official web portal to all federal, state and local government web resources and services.